Time;durP1;ratioP1;P1;durP2;ratioP2;P2;SDS_P1;SDS_P2;PMS_P1;PMS_P2;Temp;Humidity;BMP_temperature;BMP_pressure;BME280_temperature;BME280_humidity;BME280_pressure;Samples;Min_cycle;Max_cycle;Signal;HPM_P1;HPM_P2
2024/01/07 00:01:00;;;;;;;22.20;8.65;;;4.20;99.90;;;;;;5095236;28;20036;-67
2024/01/07 00:03:26;;;;;;;19.85;8.68;;;4.20;99.90;;;;;;5095020;28;20024;-67
2024/01/07 00:05:51;;;;;;;18.75;8.07;;;4.20;99.90;;;;;;5095157;28;20084;-68
2024/01/07 00:08:17;;;;;;;22.98;8.52;;;4.10;99.90;;;;;;5095058;28;20064;-66
2024/01/07 00:10:43;;;;;;;20.33;8.95;;;4.10;99.90;;;;;;5094974;28;20063;-66
2024/01/07 00:13:08;;;;;;;21.60;8.90;;;4.10;99.90;;;;;;5094895;28;20025;-67
2024/01/07 00:15:34;;;;;;;23.85;9.45;;;4.10;99.90;;;;;;5093565;28;20062;-67
2024/01/07 00:17:59;;;;;;;19.27;8.48;;;4.20;99.90;;;;;;5095043;28;20036;-67
2024/01/07 00:20:25;;;;;;;22.83;9.50;;;4.10;99.90;;;;;;5094843;28;20115;-66
2024/01/07 00:22:51;;;;;;;22.13;9.77;;;4.10;99.90;;;;;;5094802;28;20032;-67
2024/01/07 00:25:18;;;;;;;21.00;9.30;;;4.10;99.90;;;;;;5094839;28;20446;-67
2024/01/07 00:27:44;;;;;;;22.48;10.20;;;4.10;99.90;;;;;;5094776;28;20021;-67
2024/01/07 00:30:10;;;;;;;22.27;9.73;;;4.20;99.90;;;;;;5094686;28;20023;-66
2024/01/07 00:32:36;;;;;;;24.10;9.15;;;4.20;99.90;;;;;;5094246;28;20052;-67
2024/01/07 00:35:02;;;;;;;23.77;10.13;;;4.10;99.90;;;;;;5094549;28;20021;-66
2024/01/07 00:37:28;;;;;;;22.70;9.65;;;4.20;99.90;;;;;;5094596;28;20028;-66
2024/01/07 00:39:53;;;;;;;23.50;10.35;;;4.20;99.90;;;;;;5094394;28;20516;-66
2024/01/07 00:42:19;;;;;;;23.80;9.90;;;4.10;99.90;;;;;;5094470;28;20024;-68
2024/01/07 00:44:44;;;;;;;19.05;8.63;;;4.10;99.90;;;;;;5094384;28;20035;-67
2024/01/07 00:47:10;;;;;;;26.02;9.80;;;4.10;99.90;;;;;;5094381;28;20032;-67
2024/01/07 00:49:35;;;;;;;22.00;9.07;;;4.10;99.90;;;;;;5094455;28;20035;-67
2024/01/07 00:52:01;;;;;;;24.75;9.60;;;4.10;99.90;;;;;;5094222;28;20036;-67
2024/01/07 00:54:27;;;;;;;20.20;8.80;;;4.10;99.90;;;;;;5094270;28;20052;-67
2024/01/07 00:56:52;;;;;;;21.63;8.93;;;4.10;99.90;;;;;;5094255;28;20043;-67
2024/01/07 00:59:18;;;;;;;27.27;11.07;;;4.00;99.90;;;;;;5094144;28;20033;-67
2024/01/07 01:01:43;;;;;;;23.33;9.40;;;4.00;99.90;;;;;;5093893;28;20028;-66
2024/01/07 01:04:09;;;;;;;22.73;9.60;;;4.00;99.90;;;;;;5094039;28;20041;-67
2024/01/07 01:06:35;;;;;;;25.85;9.48;;;4.00;99.90;;;;;;5093971;28;20107;-66
2024/01/07 01:09:00;;;;;;;23.30;9.90;;;3.90;99.90;;;;;;5093989;28;20072;-66
2024/01/07 01:11:26;;;;;;;30.55;11.63;;;3.90;99.90;;;;;;5093915;28;20029;-66
2024/01/07 01:13:51;;;;;;;28.80;11.65;;;3.80;99.90;;;;;;5093710;28;20044;-66
2024/01/07 01:16:17;;;;;;;31.23;11.98;;;3.80;99.90;;;;;;5093625;28;20051;-66
2024/01/07 01:18:43;;;;;;;30.05;10.98;;;3.80;99.90;;;;;;5093757;28;20036;-66
2024/01/07 01:21:09;;;;;;;30.20;10.93;;;3.80;99.90;;;;;;5093606;28;20028;-66
2024/01/07 01:23:35;;;;;;;35.85;12.98;;;3.80;99.90;;;;;;5093657;28;20032;-67
2024/01/07 01:26:00;;;;;;;28.80;12.05;;;3.80;99.90;;;;;;5092663;28;20028;-66
2024/01/07 01:28:26;;;;;;;31.65;11.57;;;3.90;99.90;;;;;;5093246;28;20082;-67
2024/01/07 01:30:52;;;;;;;35.10;13.77;;;3.80;99.90;;;;;;5093411;28;20036;-67
2024/01/07 01:33:17;;;;;;;34.28;12.88;;;3.90;99.90;;;;;;5093319;28;20038;-67
2024/01/07 01:35:43;;;;;;;34.00;13.45;;;3.90;99.90;;;;;;5093410;28;20028;-66
2024/01/07 01:38:09;;;;;;;41.38;13.90;;;3.90;99.90;;;;;;5093181;28;20048;-66
2024/01/07 01:40:34;;;;;;;42.55;13.98;;;3.90;99.90;;;;;;5093249;28;20052;-66
2024/01/07 01:43:00;;;;;;;34.85;13.02;;;3.90;99.90;;;;;;5093229;28;20060;-68
2024/01/07 01:45:26;;;;;;;37.78;13.55;;;3.90;99.90;;;;;;5093206;28;20052;-67
2024/01/07 01:47:51;;;;;;;35.72;13.65;;;3.90;99.90;;;;;;5093117;28;20119;-66
2024/01/07 01:50:17;;;;;;;41.20;14.07;;;3.90;99.90;;;;;;5093158;28;20029;-68
2024/01/07 01:52:45;;;;;;;34.40;12.13;;;3.90;99.90;;;;;;5092990;28;20048;-66
2024/01/07 01:55:11;;;;;;;38.58;13.00;;;3.90;99.90;;;;;;5093088;28;20043;-66
2024/01/07 01:57:39;;;;;;;36.33;14.07;;;3.90;99.90;;;;;;5092964;28;20047;-66
2024/01/07 02:00:05;;;;;;;30.80;11.55;;;3.90;99.90;;;;;;5092968;28;20043;-67
2024/01/07 02:02:33;;;;;;;35.80;12.82;;;3.90;99.90;;;;;;5092603;28;20029;-67
2024/01/07 02:05:03;;;;;;;36.83;13.48;;;3.90;99.90;;;;;;5092893;28;20028;-67
2024/01/07 02:07:30;;;;;;;40.40;13.52;;;3.90;99.90;;;;;;5092749;28;20036;-66
2024/01/07 02:09:56;;;;;;;43.30;13.60;;;3.90;99.90;;;;;;5092782;28;20024;-66
2024/01/07 02:12:22;;;;;;;33.15;13.15;;;3.90;99.90;;;;;;5092567;28;20028;-66
2024/01/07 02:14:47;;;;;;;32.78;11.95;;;3.90;99.90;;;;;;5092630;28;20036;-66
2024/01/07 02:17:14;;;;;;;35.45;12.23;;;3.90;99.90;;;;;;5092730;28;20035;-66
2024/01/07 02:19:40;;;;;;;33.88;13.35;;;4.00;99.90;;;;;;5092514;28;20021;-66
2024/01/07 02:22:05;;;;;;;36.10;12.05;;;4.00;99.90;;;;;;5092617;28;20060;-67
2024/01/07 02:24:32;;;;;;;27.23;10.55;;;4.00;99.90;;;;;;5092656;28;20032;-66
2024/01/07 02:26:58;;;;;;;31.13;11.00;;;4.00;99.90;;;;;;5092443;28;20025;-67
2024/01/07 02:29:23;;;;;;;25.17;9.18;;;3.90;99.90;;;;;;5092588;28;20028;-67
2024/01/07 02:31:49;;;;;;;25.67;9.38;;;4.00;99.90;;;;;;5092216;28;20072;-66
2024/01/07 02:34:15;;;;;;;24.80;9.85;;;3.90;99.90;;;;;;5092523;28;20031;-66
2024/01/07 02:36:40;;;;;;;22.10;10.52;;;3.90;99.90;;;;;;5092305;28;20033;-66
2024/01/07 02:39:06;;;;;;;22.20;9.13;;;3.90;99.90;;;;;;5091536;28;20045;-66
2024/01/07 02:41:32;;;;;;;23.25;9.90;;;3.90;99.90;;;;;;5091171;28;20067;-66
2024/01/07 02:43:57;;;;;;;22.70;9.40;;;3.90;99.90;;;;;;5092398;28;20032;-66
2024/01/07 02:46:24;;;;;;;22.65;10.07;;;3.80;99.90;;;;;;5092281;28;20078;-66
2024/01/07 02:48:50;;;;;;;24.35;9.55;;;3.80;99.90;;;;;;5092435;28;20063;-66
2024/01/07 02:51:15;;;;;;;20.70;8.70;;;3.80;99.90;;;;;;5092327;28;20048;-67
2024/01/07 02:53:41;;;;;;;20.38;8.60;;;3.80;99.90;;;;;;5091174;28;20025;-67
2024/01/07 02:56:08;;;;;;;23.30;9.95;;;3.80;99.90;;;;;;5092219;28;20489;-66
2024/01/07 02:58:34;;;;;;;22.23;9.60;;;3.80;99.90;;;;;;5092240;28;20017;-66
2024/01/07 03:01:00;;;;;;;21.48;9.02;;;3.80;99.90;;;;;;5092169;28;20017;-67
2024/01/07 03:03:26;;;;;;;21.05;8.85;;;3.70;99.90;;;;;;5091931;28;20024;-67
2024/01/07 03:05:51;;;;;;;27.23;9.85;;;3.70;99.90;;;;;;5092054;28;20021;-66
2024/01/07 03:08:17;;;;;;;22.77;10.43;;;3.70;99.90;;;;;;5092030;28;20043;-66
2024/01/07 03:10:42;;;;;;;23.63;9.30;;;3.60;99.90;;;;;;5091938;28;20032;-67
2024/01/07 03:13:08;;;;;;;23.60;8.82;;;3.60;99.90;;;;;;5091825;28;20075;-66
2024/01/07 03:15:33;;;;;;;19.45;8.52;;;3.60;99.90;;;;;;5092013;28;20016;-66
2024/01/07 03:17:59;;;;;;;23.13;9.15;;;3.60;99.90;;;;;;5092052;28;20348;-66
2024/01/07 03:20:25;;;;;;;21.73;8.07;;;3.60;99.90;;;;;;5091924;28;20033;-67
2024/01/07 03:22:50;;;;;;;21.02;8.10;;;3.60;99.90;;;;;;5091951;28;20100;-67
2024/01/07 03:25:16;;;;;;;21.10;7.85;;;3.60;99.90;;;;;;5090822;28;20028;-66
2024/01/07 03:27:42;;;;;;;18.23;7.35;;;3.50;99.90;;;;;;5091913;28;20028;-66
2024/01/07 03:30:09;;;;;;;21.00;8.88;;;3.60;99.90;;;;;;5091925;28;20035;-67
2024/01/07 03:32:34;;;;;;;19.38;8.77;;;3.60;99.90;;;;;;5091548;28;20035;-66
2024/01/07 03:35:00;;;;;;;23.02;7.53;;;3.60;99.90;;;;;;5091810;28;20025;-66
2024/01/07 03:37:25;;;;;;;15.32;6.75;;;3.60;99.90;;;;;;5091739;28;20032;-66
2024/01/07 03:39:51;;;;;;;18.70;7.72;;;3.60;99.90;;;;;;5090539;28;20041;-66
2024/01/07 03:42:16;;;;;;;22.98;8.43;;;3.60;99.90;;;;;;5091748;28;20494;-66
2024/01/07 03:44:42;;;;;;;19.88;7.88;;;3.60;99.90;;;;;;5091805;28;20028;-66
2024/01/07 03:47:08;;;;;;;26.48;9.10;;;3.60;99.90;;;;;;5091746;28;20074;-66
2024/01/07 03:49:36;;;;;;;20.60;8.02;;;3.60;99.90;;;;;;5091926;28;20059;-66
2024/01/07 03:52:01;;;;;;;22.13;8.00;;;3.60;99.90;;;;;;5095357;28;20052;-66
2024/01/07 03:54:27;;;;;;;16.55;7.55;;;3.60;99.90;;;;;;5095454;28;20028;-66
2024/01/07 03:56:52;;;;;;;19.55;6.90;;;3.60;99.90;;;;;;5095266;28;20036;-66
2024/01/07 03:59:18;;;;;;;19.92;8.50;;;3.60;99.90;;;;;;5095302;28;20027;-66
2024/01/07 04:01:44;;;;;;;17.77;7.88;;;3.60;99.90;;;;;;5095049;28;20025;-66
2024/01/07 04:04:10;;;;;;;20.60;8.02;;;3.50;99.90;;;;;;5095257;28;20036;-67
2024/01/07 04:06:35;;;;;;;21.27;8.10;;;3.50;99.90;;;;;;5095115;28;20029;-66
2024/01/07 04:09:01;;;;;;;17.75;7.95;;;3.50;99.90;;;;;;5095033;28;20084;-66
2024/01/07 04:11:26;;;;;;;19.00;7.47;;;3.50;99.90;;;;;;5095017;28;20470;-66
2024/01/07 04:13:52;;;;;;;21.08;7.97;;;3.50;99.90;;;;;;5095053;28;20028;-66
2024/01/07 04:16:21;;;;;;;24.20;7.82;;;3.50;99.90;;;;;;5095033;28;20024;-67
2024/01/07 04:18:47;;;;;;;15.32;7.80;;;3.50;99.90;;;;;;5094950;28;20474;-67
2024/01/07 04:21:13;;;;;;;12.18;5.88;;;3.50;99.90;;;;;;5094886;28;20025;-66
2024/01/07 04:23:43;;;;;;;17.55;6.55;;;3.40;99.90;;;;;;5094836;28;20035;-67
2024/01/07 04:26:09;;;;;;;15.98;7.15;;;3.50;99.90;;;;;;5094838;28;20160;-66
2024/01/07 04:28:35;;;;;;;18.67;7.90;;;3.40;99.90;;;;;;5094787;28;20037;-66
2024/01/07 04:31:00;;;;;;;19.05;7.85;;;3.40;99.90;;;;;;5094767;28;20058;-66
2024/01/07 04:33:27;;;;;;;14.30;7.35;;;3.40;99.90;;;;;;5094304;28;20043;-66
2024/01/07 04:35:52;;;;;;;14.02;7.10;;;3.40;99.90;;;;;;5094567;28;20017;-67
2024/01/07 04:38:18;;;;;;;14.93;6.97;;;3.40;99.90;;;;;;5094388;28;20047;-66
2024/01/07 04:40:43;;;;;;;13.88;6.57;;;3.40;99.90;;;;;;5094542;28;20024;-66
2024/01/07 04:43:09;;;;;;;17.23;7.32;;;3.30;99.90;;;;;;5094559;28;20500;-67
2024/01/07 04:45:34;;;;;;;15.70;7.72;;;3.30;99.90;;;;;;5094463;28;20040;-66
2024/01/07 04:48:00;;;;;;;17.42;7.75;;;3.40;99.90;;;;;;5094404;28;20056;-66
2024/01/07 04:50:26;;;;;;;14.15;6.28;;;3.40;99.90;;;;;;5094357;28;20112;-66
2024/01/07 04:52:51;;;;;;;10.98;6.03;;;3.30;99.90;;;;;;5094115;28;20036;-66
2024/01/07 04:55:17;;;;;;;16.45;7.75;;;3.30;99.90;;;;;;5094328;28;20490;-66
2024/01/07 04:57:42;;;;;;;15.80;7.13;;;3.30;99.90;;;;;;5094176;28;20025;-66
2024/01/07 05:00:09;;;;;;;19.05;8.13;;;3.20;99.90;;;;;;5094187;28;20032;-67
2024/01/07 05:02:34;;;;;;;16.75;7.00;;;3.20;99.90;;;;;;5093153;28;20550;-66
2024/01/07 05:05:00;;;;;;;17.00;7.95;;;3.30;99.90;;;;;;5094106;28;20028;-67
2024/01/07 05:07:25;;;;;;;17.27;7.60;;;3.30;99.90;;;;;;5093850;28;20044;-66
2024/01/07 05:09:51;;;;;;;18.25;7.07;;;3.20;99.90;;;;;;5093997;28;20060;-66
2024/01/07 05:12:16;;;;;;;14.73;6.85;;;3.20;99.90;;;;;;5092930;28;20046;-66
2024/01/07 05:14:42;;;;;;;14.13;6.15;;;3.20;99.90;;;;;;5093933;28;20039;-67
2024/01/07 05:17:09;;;;;;;13.85;6.03;;;3.20;99.90;;;;;;5092815;28;20020;-66
2024/01/07 05:19:35;;;;;;;14.50;7.05;;;3.20;99.90;;;;;;5093747;28;20025;-66
2024/01/07 05:22:00;;;;;;;13.90;6.50;;;3.20;99.90;;;;;;5093622;28;20108;-66
2024/01/07 05:24:26;;;;;;;14.75;6.93;;;3.20;99.90;;;;;;5093757;28;20088;-66
2024/01/07 05:26:52;;;;;;;11.85;6.72;;;3.20;99.90;;;;;;5093668;28;20032;-66
2024/01/07 05:29:18;;;;;;;15.57;7.50;;;3.20;99.90;;;;;;5093633;28;20059;-66
2024/01/07 05:31:44;;;;;;;14.05;6.75;;;3.20;99.90;;;;;;5093348;28;20025;-67
2024/01/07 05:34:09;;;;;;;14.90;6.57;;;3.20;99.90;;;;;;5093430;28;20029;-66
2024/01/07 05:36:35;;;;;;;16.55;7.10;;;3.30;99.90;;;;;;5093276;28;20021;-66
2024/01/07 05:39:00;;;;;;;11.00;6.03;;;3.20;99.90;;;;;;5093294;28;20057;-66
2024/01/07 05:41:26;;;;;;;11.38;5.47;;;3.20;99.90;;;;;;5093371;28;20021;-66
2024/01/07 05:43:53;;;;;;;13.90;7.10;;;3.20;99.90;;;;;;5093365;28;20040;-66
2024/01/07 05:46:18;;;;;;;16.27;7.53;;;3.20;99.90;;;;;;5093284;28;20113;-66
2024/01/07 05:48:45;;;;;;;11.13;5.82;;;3.20;99.90;;;;;;5093269;28;20032;-66
2024/01/07 05:51:11;;;;;;;14.15;6.70;;;3.20;99.90;;;;;;5093125;28;20048;-66
2024/01/07 05:53:37;;;;;;;12.60;5.97;;;3.10;99.90;;;;;;5093075;28;20025;-67
2024/01/07 05:56:03;;;;;;;17.02;7.28;;;3.10;99.90;;;;;;5093131;28;20039;-67
2024/01/07 05:58:29;;;;;;;16.55;7.25;;;3.10;99.90;;;;;;5093053;28;20033;-67
2024/01/07 06:00:55;;;;;;;15.90;7.57;;;3.10;99.90;;;;;;5093006;28;20291;-66
2024/01/07 06:03:21;;;;;;;17.65;7.45;;;3.20;99.90;;;;;;5092673;28;20030;-66
2024/01/07 06:05:46;;;;;;;13.65;6.88;;;3.10;99.90;;;;;;5092808;28;20056;-66
2024/01/07 06:08:12;;;;;;;14.20;6.53;;;3.10;99.90;;;;;;5091682;28;20032;-66
2024/01/07 06:10:39;;;;;;;17.33;8.00;;;3.10;99.90;;;;;;5092705;28;20052;-66
2024/01/07 06:13:05;;;;;;;18.50;7.78;;;3.10;99.90;;;;;;5092678;28;20025;-66
2024/01/07 06:15:30;;;;;;;19.60;7.85;;;3.10;99.90;;;;;;5091678;28;20028;-66
2024/01/07 06:17:56;;;;;;;14.68;7.90;;;3.00;99.90;;;;;;5092777;28;20021;-67
2024/01/07 06:20:21;;;;;;;12.95;6.55;;;3.10;99.90;;;;;;5092502;28;20180;-66
2024/01/07 06:22:47;;;;;;;13.77;6.70;;;3.10;99.90;;;;;;5092585;28;20029;-67
2024/01/07 06:25:13;;;;;;;15.88;7.20;;;3.10;99.90;;;;;;5092597;28;20371;-66
2024/01/07 06:27:39;;;;;;;19.00;7.18;;;3.10;99.90;;;;;;5092557;28;20044;-67
2024/01/07 06:30:06;;;;;;;14.30;7.32;;;3.10;99.90;;;;;;5092513;28;20021;-67
2024/01/07 06:32:32;;;;;;;14.98;6.55;;;3.00;99.90;;;;;;5092178;28;20020;-66
2024/01/07 06:34:58;;;;;;;12.23;6.72;;;3.00;99.90;;;;;;5092455;28;20021;-66
2024/01/07 06:37:23;;;;;;;12.00;6.43;;;3.00;99.90;;;;;;5092401;28;20024;-66
2024/01/07 06:39:49;;;;;;;10.82;5.60;;;2.90;99.90;;;;;;5092197;28;20073;-66
2024/01/07 06:42:15;;;;;;;15.77;7.65;;;2.90;99.90;;;;;;5092420;28;20055;-67
2024/01/07 06:44:40;;;;;;;13.90;6.88;;;2.90;99.90;;;;;;5092345;28;20382;-66
2024/01/07 06:47:06;;;;;;;16.58;7.10;;;2.90;99.90;;;;;;5092333;28;20059;-66
2024/01/07 06:49:32;;;;;;;12.73;6.78;;;2.90;99.90;;;;;;5092215;28;20033;-66
2024/01/07 06:51:57;;;;;;;17.40;7.30;;;3.00;99.90;;;;;;5092230;28;20025;-66
2024/01/07 06:54:23;;;;;;;13.18;6.63;;;3.00;99.90;;;;;;5092245;28;20033;-66
2024/01/07 06:56:48;;;;;;;14.27;6.43;;;3.00;99.90;;;;;;5092182;28;20039;-66
2024/01/07 06:59:14;;;;;;;15.02;6.63;;;2.90;99.90;;;;;;5092271;28;20025;-66
2024/01/07 07:01:40;;;;;;;16.20;6.88;;;2.90;99.90;;;;;;5092014;28;20037;-66
2024/01/07 07:04:05;;;;;;;17.30;7.57;;;2.90;99.90;;;;;;5092011;28;20138;-66
2024/01/07 07:06:31;;;;;;;18.88;7.50;;;2.90;99.90;;;;;;5092004;28;20205;-66
2024/01/07 07:08:56;;;;;;;15.52;6.80;;;3.00;99.90;;;;;;5092133;28;20092;-67
2024/01/07 07:11:22;;;;;;;13.35;6.85;;;2.90;99.90;;;;;;5092126;28;20048;-67
2024/01/07 07:13:48;;;;;;;12.85;5.75;;;2.90;99.90;;;;;;5091894;28;20036;-67
2024/01/07 07:16:14;;;;;;;10.65;5.90;;;3.00;99.90;;;;;;5091983;28;20021;-67
2024/01/07 07:18:39;;;;;;;17.20;7.53;;;3.00;99.90;;;;;;5092111;28;20039;-68
2024/01/07 07:21:05;;;;;;;14.40;7.38;;;3.00;99.90;;;;;;5066903;28;20048;-72
2024/01/07 07:23:31;;;;;;;12.82;6.45;;;3.00;99.90;;;;;;5051825;28;20041;-67
2024/01/07 07:25:56;;;;;;;13.52;5.70;;;3.00;99.90;;;;;;5054370;28;20026;-68
2024/01/07 07:28:22;;;;;;;13.57;7.03;;;2.90;99.90;;;;;;5055916;28;20037;-68
2024/01/07 07:30:47;;;;;;;17.38;6.47;;;2.90;99.90;;;;;;5055898;28;20044;-67
2024/01/07 07:33:13;;;;;;;15.82;6.75;;;2.90;99.90;;;;;;5055509;28;20064;-68
2024/01/07 07:35:41;;;;;;;12.98;6.82;;;2.80;99.90;;;;;;5055783;28;20018;-67
2024/01/07 07:38:07;;;;;;;10.85;6.10;;;2.90;99.90;;;;;;5055433;28;20101;-67
2024/01/07 07:40:33;;;;;;;18.88;6.80;;;2.80;99.90;;;;;;5055082;28;20049;-68
2024/01/07 07:42:58;;;;;;;12.43;6.25;;;2.80;99.90;;;;;;5055674;28;20030;-67
2024/01/07 07:45:24;;;;;;;11.73;5.78;;;2.90;99.90;;;;;;5055664;28;20037;-67
2024/01/07 07:47:49;;;;;;;13.50;6.35;;;2.80;99.90;;;;;;5055440;28;20026;-67
2024/01/07 07:50:15;;;;;;;11.05;5.32;;;2.80;99.90;;;;;;5055413;28;20026;-67
2024/01/07 07:52:44;;;;;;;12.18;6.13;;;2.80;99.90;;;;;;5055368;28;20029;-68
2024/01/07 07:55:10;;;;;;;16.15;7.05;;;2.80;99.90;;;;;;5055424;28;20026;-68
2024/01/07 07:57:37;;;;;;;11.80;5.95;;;2.80;99.90;;;;;;5055403;28;20025;-68
2024/01/07 08:00:05;;;;;;;15.60;7.03;;;2.80;99.90;;;;;;5055383;28;20064;-67
2024/01/07 08:02:30;;;;;;;8.98;4.85;;;2.80;99.90;;;;;;5054978;28;20092;-67
2024/01/07 08:04:56;;;;;;;11.82;5.43;;;2.80;99.90;;;;;;5055226;28;20033;-67
2024/01/07 08:07:21;;;;;;;11.20;5.38;;;2.70;99.90;;;;;;5055082;28;20097;-67
2024/01/07 08:09:47;;;;;;;14.23;6.60;;;2.70;99.90;;;;;;5055125;28;20034;-67
2024/01/07 08:12:13;;;;;;;13.80;7.43;;;2.60;99.90;;;;;;5054988;28;20026;-68
2024/01/07 08:14:40;;;;;;;12.35;5.90;;;2.60;99.90;;;;;;5054897;28;20025;-67
2024/01/07 08:17:07;;;;;;;7.88;3.40;;;2.60;99.90;;;;;;5054858;28;20053;-68
2024/01/07 08:19:32;;;;;;;9.35;3.33;;;2.70;99.90;;;;;;5054978;28;20032;-67
2024/01/07 08:21:58;;;;;;;9.45;4.90;;;2.70;99.90;;;;;;5054773;28;20527;-68
2024/01/07 08:24:24;;;;;;;15.15;6.47;;;2.70;99.90;;;;;;5054864;28;20025;-69
2024/01/07 08:26:49;;;;;;;9.75;3.85;;;2.70;99.90;;;;;;5054761;28;20040;-68
2024/01/07 08:29:15;;;;;;;11.10;5.10;;;2.70;99.90;;;;;;5054732;28;20076;-68
2024/01/07 08:31:42;;;;;;;12.73;5.82;;;2.70;99.90;;;;;;5054465;28;20025;-67
2024/01/07 08:34:07;;;;;;;9.57;4.63;;;2.70;99.90;;;;;;5054600;28;20024;-68
2024/01/07 08:36:33;;;;;;;10.75;5.40;;;2.70;99.90;;;;;;5053448;28;20030;-68
2024/01/07 08:39:00;;;;;;;13.23;5.80;;;2.80;99.90;;;;;;5054591;28;20069;-67
2024/01/07 08:41:26;;;;;;;9.60;5.28;;;2.80;99.90;;;;;;5054374;28;20046;-68
2024/01/07 08:43:51;;;;;;;8.93;5.20;;;2.70;99.90;;;;;;5054594;28;20087;-68
2024/01/07 08:46:17;;;;;;;13.25;5.70;;;2.70;99.90;;;;;;5054382;28;20036;-68
2024/01/07 08:48:42;;;;;;;9.27;5.15;;;2.70;99.90;;;;;;5054382;28;20029;-70
2024/01/07 08:51:08;;;;;;;11.00;5.25;;;2.60;99.90;;;;;;5054342;28;20030;-68
2024/01/07 08:53:34;;;;;;;13.07;6.05;;;2.60;99.90;;;;;;5054278;28;20033;-67
2024/01/07 08:55:59;;;;;;;4.45;2.42;;;2.60;99.90;;;;;;5054290;28;20108;-66
2024/01/07 08:58:25;;;;;;;7.68;4.25;;;2.60;99.90;;;;;;5053343;28;20028;-67
2024/01/07 09:00:51;;;;;;;10.43;4.90;;;2.60;99.90;;;;;;5054120;28;20018;-66
2024/01/07 09:03:17;;;;;;;13.20;6.53;;;2.60;99.90;;;;;;5054073;28;20014;-67
2024/01/07 09:05:43;;;;;;;13.57;5.93;;;2.60;99.90;;;;;;5054096;28;20023;-69
2024/01/07 09:08:11;;;;;;;13.20;6.35;;;2.60;99.90;;;;;;5054125;28;20049;-68
2024/01/07 09:10:36;;;;;;;11.25;4.30;;;2.60;99.90;;;;;;5053992;28;20029;-67
2024/01/07 09:13:04;;;;;;;10.57;5.40;;;2.60;99.90;;;;;;5053901;28;20591;-68
2024/01/07 09:15:29;;;;;;;9.98;5.30;;;2.70;99.90;;;;;;5053845;28;20018;-68
2024/01/07 09:17:55;;;;;;;8.90;5.50;;;2.60;99.90;;;;;;5053800;28;20056;-68
2024/01/07 09:20:20;;;;;;;11.52;5.90;;;2.60;99.90;;;;;;5053814;28;20017;-68
2024/01/07 09:22:46;;;;;;;10.60;5.40;;;2.60;99.90;;;;;;5053827;28;20504;-67
2024/01/07 09:25:11;;;;;;;12.73;5.10;;;2.60;99.90;;;;;;5053790;28;20040;-68
2024/01/07 09:27:37;;;;;;;12.82;5.63;;;2.60;99.90;;;;;;5053680;28;20034;-68
2024/01/07 09:30:03;;;;;;;8.10;4.00;;;2.60;99.90;;;;;;5053578;28;20076;-67
2024/01/07 09:32:29;;;;;;;12.45;6.03;;;2.60;99.90;;;;;;5053294;28;20018;-67
2024/01/07 09:34:54;;;;;;;11.80;5.32;;;2.50;99.90;;;;;;5053593;28;20045;-68
2024/01/07 09:37:20;;;;;;;7.63;3.58;;;2.50;99.90;;;;;;5053372;28;20041;-67
2024/01/07 09:39:46;;;;;;;10.48;5.50;;;2.50;99.90;;;;;;5053244;28;20029;-68
2024/01/07 09:42:19;;;;;;;11.70;5.72;;;2.50;99.90;;;;;;5053427;28;20037;-67
2024/01/07 09:44:46;;;;;;;12.00;5.22;;;2.50;99.90;;;;;;5053361;28;20018;-67
2024/01/07 09:47:13;;;;;;;11.98;5.45;;;2.50;99.90;;;;;;5053291;28;20123;-67
2024/01/07 09:49:40;;;;;;;11.88;5.85;;;2.50;99.90;;;;;;5053049;28;20043;-67
2024/01/07 09:52:07;;;;;;;10.27;4.95;;;2.50;99.90;;;;;;5053152;28;20030;-68
2024/01/07 09:54:33;;;;;;;10.35;5.68;;;2.50;99.90;;;;;;5053109;28;20085;-67
2024/01/07 09:57:03;;;;;;;8.15;3.90;;;2.50;99.90;;;;;;5053025;28;20021;-67
2024/01/07 09:59:29;;;;;;;10.20;5.38;;;2.50;99.90;;;;;;5052175;28;20036;-68
2024/01/07 10:01:56;;;;;;;10.38;5.20;;;2.50;99.90;;;;;;5052839;28;20372;-67
2024/01/07 10:04:26;;;;;;;8.90;4.72;;;2.50;99.90;;;;;;5053024;28;20029;-69
2024/01/07 10:06:54;;;;;;;14.35;6.18;;;2.50;99.90;;;;;;5052922;28;20061;-67
2024/01/07 10:09:26;;;;;;;11.98;5.50;;;2.50;99.90;;;;;;5052918;28;20030;-67
2024/01/07 10:11:51;;;;;;;6.50;3.60;;;2.50;99.90;;;;;;5052876;28;20071;-67
2024/01/07 10:14:17;;;;;;;6.43;3.33;;;2.50;99.90;;;;;;5052754;28;20034;-67
2024/01/07 10:16:43;;;;;;;13.30;5.85;;;2.50;99.90;;;;;;5052775;28;20037;-68
2024/01/07 10:19:08;;;;;;;11.55;5.53;;;2.50;99.90;;;;;;5052811;28;20040;-68
2024/01/07 10:21:34;;;;;;;11.52;6.40;;;2.60;99.90;;;;;;5052635;28;20027;-68
2024/01/07 10:24:10;;;;;;;7.75;4.22;;;2.60;99.90;;;;;;5052629;28;20036;-68
2024/01/07 10:26:40;;;;;;;7.25;3.72;;;2.60;99.90;;;;;;5052641;28;20120;-68
2024/01/07 10:29:06;;;;;;;8.75;5.25;;;2.60;99.90;;;;;;5052566;28;20060;-68
2024/01/07 10:31:32;;;;;;;10.43;5.18;;;2.70;99.90;;;;;;5052302;28;20029;-67
2024/01/07 10:33:58;;;;;;;9.50;4.53;;;2.70;99.90;;;;;;5051517;28;20025;-68
2024/01/07 10:36:25;;;;;;;12.38;5.35;;;2.70;99.90;;;;;;5052378;28;20040;-68
2024/01/07 10:38:51;;;;;;;14.05;5.80;;;2.70;99.90;;;;;;5052273;28;20089;-67
2024/01/07 10:41:20;;;;;;;9.60;5.38;;;2.70;99.90;;;;;;5052053;28;20046;-68
2024/01/07 10:43:49;;;;;;;14.73;5.53;;;2.70;99.90;;;;;;5052498;28;20036;-67
2024/01/07 10:46:16;;;;;;;12.25;4.90;;;2.70;99.90;;;;;;5052306;28;20018;-67
2024/01/07 10:48:55;;;;;;;7.60;3.60;;;2.70;99.90;;;;;;5052363;28;20075;-67
2024/01/07 10:51:22;;;;;;;10.25;5.32;;;2.70;99.90;;;;;;5052216;28;20030;-67
2024/01/07 10:53:55;;;;;;;11.35;5.72;;;2.70;99.90;;;;;;5052145;28;20032;-66
2024/01/07 10:56:25;;;;;;;12.13;6.05;;;2.70;99.90;;;;;;5052189;28;20109;-67
2024/01/07 10:58:54;;;;;;;11.40;5.35;;;2.70;99.90;;;;;;5052137;28;20049;-67
2024/01/07 11:01:21;;;;;;;11.48;5.70;;;2.70;99.90;;;;;;5050420;28;20021;-68
2024/01/07 11:04:10;;;;;;;10.38;4.97;;;2.70;99.90;;;;;;5052075;28;20025;-67
2024/01/07 11:07:03;;;;;;;8.40;4.55;;;2.70;99.90;;;;;;5051330;28;20038;-66
2024/01/07 11:09:38;;;;;;;8.77;4.25;;;2.80;99.90;;;;;;5052094;28;20033;-66
2024/01/07 11:12:04;;;;;;;10.38;5.47;;;2.70;99.90;;;;;;5051954;28;20022;-67
2024/01/07 11:14:53;;;;;;;11.18;5.15;;;2.70;99.90;;;;;;5051973;28;20022;-67
2024/01/07 11:17:37;;;;;;;12.05;5.07;;;2.70;99.90;;;;;;5051075;28;20034;-66
2024/01/07 11:20:05;;;;;;;9.88;4.45;;;2.70;99.90;;;;;;5051831;28;20025;-67
2024/01/07 11:22:30;;;;;;;10.90;4.88;;;2.80;99.90;;;;;;5051864;28;20026;-67
2024/01/07 11:24:57;;;;;;;8.18;3.88;;;2.80;99.90;;;;;;5052018;28;20114;-67
2024/01/07 11:27:24;;;;;;;5.40;3.17;;;2.80;99.90;;;;;;5051979;28;20081;-68
2024/01/07 11:29:55;;;;;;;8.45;3.67;;;2.90;99.90;;;;;;5052005;28;20052;-67
2024/01/07 11:32:23;;;;;;;10.55;4.43;;;2.90;99.90;;;;;;5051611;28;20041;-68
2024/01/07 11:34:50;;;;;;;7.45;3.38;;;2.90;99.90;;;;;;5051901;28;20030;-67
2024/01/07 11:37:16;;;;;;;7.00;3.88;;;3.00;99.90;;;;;;5051838;28;20089;-68
2024/01/07 11:39:44;;;;;;;8.40;3.83;;;2.90;99.90;;;;;;5051871;28;20052;-69
2024/01/07 11:42:11;;;;;;;7.18;3.13;;;2.90;99.90;;;;;;5051791;28;20041;-67
2024/01/07 11:44:37;;;;;;;6.32;3.10;;;2.90;99.90;;;;;;5051852;28;20021;-69
2024/01/07 11:47:07;;;;;;;8.57;4.30;;;2.90;99.90;;;;;;5051746;28;20045;-67
2024/01/07 11:49:33;;;;;;;6.78;3.60;;;2.80;99.90;;;;;;5051688;28;20022;-68
2024/01/07 11:51:59;;;;;;;9.23;3.20;;;2.80;99.90;;;;;;5051739;28;20018;-68
2024/01/07 11:54:25;;;;;;;6.68;3.78;;;2.80;99.90;;;;;;5051594;28;20031;-67
2024/01/07 11:56:50;;;;;;;8.75;4.20;;;2.80;99.90;;;;;;5051610;28;20032;-67
2024/01/07 11:59:16;;;;;;;12.52;4.57;;;2.80;99.90;;;;;;5051727;28;20495;-67
2024/01/07 12:01:42;;;;;;;6.53;4.20;;;2.90;99.90;;;;;;5051437;28;20033;-67
2024/01/07 12:04:09;;;;;;;8.07;4.25;;;3.00;99.90;;;;;;5051541;28;20033;-67
2024/01/07 12:06:35;;;;;;;7.53;3.88;;;3.10;99.90;;;;;;5051474;28;20029;-67
2024/01/07 12:09:00;;;;;;;8.02;4.32;;;3.10;99.90;;;;;;5051579;28;20067;-67
2024/01/07 12:11:26;;;;;;;5.15;2.42;;;3.10;99.90;;;;;;5052995;28;20025;-68
2024/01/07 12:13:52;;;;;;;6.95;3.15;;;3.10;99.90;;;;;;5055048;28;20029;-67
2024/01/07 12:16:18;;;;;;;3.47;2.17;;;3.10;99.90;;;;;;5055027;28;20089;-67
2024/01/07 12:18:44;;;;;;;5.97;3.53;;;3.10;99.90;;;;;;5055041;28;20021;-68
2024/01/07 12:21:10;;;;;;;5.65;2.78;;;3.10;99.90;;;;;;5055002;28;20030;-68
2024/01/07 12:23:37;;;;;;;6.60;3.05;;;3.10;99.90;;;;;;5055014;28;20029;-68
2024/01/07 12:26:10;;;;;;;6.90;3.17;;;3.20;99.90;;;;;;5060363;28;20021;-67
2024/01/07 12:28:36;;;;;;;4.63;2.42;;;3.20;99.90;;;;;;5063606;28;20038;-67
2024/01/07 12:31:04;;;;;;;6.20;3.47;;;3.20;99.90;;;;;;5074670;28;20029;-67
2024/01/07 12:33:31;;;;;;;8.27;3.20;;;3.20;99.90;;;;;;5074385;28;20029;-68
2024/01/07 12:35:57;;;;;;;4.03;2.50;;;3.20;99.90;;;;;;5074601;28;20040;-67
2024/01/07 12:38:30;;;;;;;6.80;2.35;;;3.20;99.90;;;;;;5074518;28;20052;-68
2024/01/07 12:40:56;;;;;;;7.18;3.50;;;3.10;99.90;;;;;;5074303;28;20053;-68
2024/01/07 12:43:22;;;;;;;3.90;2.45;;;3.10;99.90;;;;;;5074487;28;20025;-67